sensor_id;sensor_type;location;lat;lon;timestamp;P1;durP1;ratioP1;P2;durP2;ratioP2
75061;SDS011;63641;46.526;24.612;2023-11-18T00:00:55;3.55;;;3.25;;
75061;SDS011;63641;46.526;24.612;2023-11-18T00:03:22;3.50;;;3.20;;
75061;SDS011;63641;46.526;24.612;2023-11-18T00:05:49;4.38;;;3.05;;
75061;SDS011;63641;46.526;24.612;2023-11-18T00:08:15;3.53;;;3.10;;
75061;SDS011;63641;46.526;24.612;2023-11-18T00:10:42;3.35;;;2.85;;
75061;SDS011;63641;46.526;24.612;2023-11-18T00:13:09;3.08;;;2.78;;
75061;SDS011;63641;46.526;24.612;2023-11-18T00:15:35;2.78;;;2.58;;
75061;SDS011;63641;46.526;24.612;2023-11-18T00:18:02;2.47;;;2.28;;
75061;SDS011;63641;46.526;24.612;2023-11-18T00:20:29;2.10;;;1.90;;
75061;SDS011;63641;46.526;24.612;2023-11-18T00:22:57;2.30;;;2.05;;
75061;SDS011;63641;46.526;24.612;2023-11-18T00:25:24;2.42;;;2.22;;
75061;SDS011;63641;46.526;24.612;2023-11-18T00:27:51;2.25;;;2.15;;
75061;SDS011;63641;46.526;24.612;2023-11-18T00:30:18;2.10;;;2.00;;
75061;SDS011;63641;46.526;24.612;2023-11-18T00:32:45;2.70;;;2.50;;
75061;SDS011;63641;46.526;24.612;2023-11-18T00:35:12;2.92;;;2.72;;
75061;SDS011;63641;46.526;24.612;2023-11-18T00:37:38;2.58;;;2.35;;
75061;SDS011;63641;46.526;24.612;2023-11-18T00:40:06;3.78;;;3.03;;
75061;SDS011;63641;46.526;24.612;2023-11-18T00:42:36;3.30;;;3.00;;
75061;SDS011;63641;46.526;24.612;2023-11-18T00:45:02;2.70;;;2.50;;
75061;SDS011;63641;46.526;24.612;2023-11-18T00:47:31;2.60;;;2.40;;
75061;SDS011;63641;46.526;24.612;2023-11-18T00:49:57;2.55;;;2.35;;
75061;SDS011;63641;46.526;24.612;2023-11-18T00:52:25;2.42;;;2.22;;
75061;SDS011;63641;46.526;24.612;2023-11-18T00:54:51;2.92;;;2.72;;
75061;SDS011;63641;46.526;24.612;2023-11-18T00:57:18;2.45;;;2.25;;
75061;SDS011;63641;46.526;24.612;2023-11-18T00:59:45;2.88;;;2.67;;
75061;SDS011;63641;46.526;24.612;2023-11-18T01:02:11;2.47;;;2.33;;
75061;SDS011;63641;46.526;24.612;2023-11-18T01:04:39;2.88;;;2.13;;
75061;SDS011;63641;46.526;24.612;2023-11-18T01:07:06;2.63;;;2.42;;
75061;SDS011;63641;46.526;24.612;2023-11-18T01:09:34;2.38;;;2.17;;
75061;SDS011;63641;46.526;24.612;2023-11-18T01:12:05;2.20;;;2.00;;
75061;SDS011;63641;46.526;24.612;2023-11-18T01:14:36;2.20;;;2.10;;
75061;SDS011;63641;46.526;24.612;2023-11-18T01:17:05;3.08;;;2.50;;
75061;SDS011;63641;46.526;24.612;2023-11-18T01:19:32;2.70;;;2.50;;
75061;SDS011;63641;46.526;24.612;2023-11-18T01:22:00;2.67;;;2.47;;
75061;SDS011;63641;46.526;24.612;2023-11-18T01:24:27;2.33;;;2.13;;
75061;SDS011;63641;46.526;24.612;2023-11-18T01:26:54;2.42;;;2.22;;
75061;SDS011;63641;46.526;24.612;2023-11-18T01:29:21;2.90;;;2.70;;
75061;SDS011;63641;46.526;24.612;2023-11-18T01:31:48;2.78;;;2.58;;
75061;SDS011;63641;46.526;24.612;2023-11-18T01:34:18;3.00;;;2.70;;
75061;SDS011;63641;46.526;24.612;2023-11-18T01:36:49;2.58;;;2.38;;
75061;SDS011;63641;46.526;24.612;2023-11-18T01:39:17;2.65;;;2.45;;
75061;SDS011;63641;46.526;24.612;2023-11-18T01:41:47;3.10;;;2.80;;
75061;SDS011;63641;46.526;24.612;2023-11-18T01:44:15;2.45;;;2.25;;
75061;SDS011;63641;46.526;24.612;2023-11-18T01:46:42;3.17;;;2.88;;
75061;SDS011;63641;46.526;24.612;2023-11-18T01:49:12;3.28;;;2.97;;
75061;SDS011;63641;46.526;24.612;2023-11-18T01:51:41;3.25;;;2.95;;
75061;SDS011;63641;46.526;24.612;2023-11-18T01:54:09;3.60;;;3.00;;
75061;SDS011;63641;46.526;24.612;2023-11-18T01:56:42;3.30;;;3.00;;
75061;SDS011;63641;46.526;24.612;2023-11-18T01:59:11;3.70;;;3.35;;
75061;SDS011;63641;46.526;24.612;2023-11-18T02:01:47;3.22;;;2.92;;
75061;SDS011;63641;46.526;24.612;2023-11-18T02:04:16;3.30;;;2.97;;
75061;SDS011;63641;46.526;24.612;2023-11-18T02:06:47;3.50;;;3.20;;
75061;SDS011;63641;46.526;24.612;2023-11-18T02:09:15;3.80;;;3.40;;
75061;SDS011;63641;46.526;24.612;2023-11-18T02:14:22;3.53;;;3.22;;
75061;SDS011;63641;46.526;24.612;2023-11-18T02:16:53;3.15;;;2.92;;
75061;SDS011;63641;46.526;24.612;2023-11-18T02:19:25;4.35;;;3.80;;
75061;SDS011;63641;46.526;24.612;2023-11-18T02:21:53;3.35;;;3.08;;
75061;SDS011;63641;46.526;24.612;2023-11-18T02:24:33;3.38;;;3.08;;
75061;SDS011;63641;46.526;24.612;2023-11-18T02:27:03;4.50;;;3.70;;
75061;SDS011;63641;46.526;24.612;2023-11-18T02:29:37;2.95;;;2.75;;
75061;SDS011;63641;46.526;24.612;2023-11-18T02:32:27;3.10;;;2.80;;
75061;SDS011;63641;46.526;24.612;2023-11-18T02:35:10;3.75;;;3.45;;
75061;SDS011;63641;46.526;24.612;2023-11-18T02:37:46;3.47;;;3.15;;
75061;SDS011;63641;46.526;24.612;2023-11-18T02:40:16;2.90;;;2.60;;
75061;SDS011;63641;46.526;24.612;2023-11-18T02:42:46;4.00;;;3.65;;
75061;SDS011;63641;46.526;24.612;2023-11-18T02:45:15;5.38;;;3.22;;
75061;SDS011;63641;46.526;24.612;2023-11-18T02:47:44;6.43;;;3.88;;
75061;SDS011;63641;46.526;24.612;2023-11-18T02:50:11;4.13;;;3.72;;
75061;SDS011;63641;46.526;24.612;2023-11-18T02:52:40;4.45;;;3.85;;
75061;SDS011;63641;46.526;24.612;2023-11-18T02:55:07;3.92;;;3.42;;
75061;SDS011;63641;46.526;24.612;2023-11-18T02:57:35;4.03;;;3.63;;
75061;SDS011;63641;46.526;24.612;2023-11-18T03:00:06;4.53;;;3.97;;
75061;SDS011;63641;46.526;24.612;2023-11-18T03:02:44;4.35;;;3.90;;
75061;SDS011;63641;46.526;24.612;2023-11-18T03:05:13;4.47;;;3.70;;
75061;SDS011;63641;46.526;24.612;2023-11-18T03:07:41;4.60;;;4.03;;
75061;SDS011;63641;46.526;24.612;2023-11-18T03:10:08;4.82;;;3.88;;
75061;SDS011;63641;46.526;24.612;2023-11-18T03:12:39;4.90;;;3.60;;
75061;SDS011;63641;46.526;24.612;2023-11-18T03:15:06;3.88;;;3.55;;
75061;SDS011;63641;46.526;24.612;2023-11-18T03:17:35;4.00;;;3.60;;
75061;SDS011;63641;46.526;24.612;2023-11-18T03:20:02;3.97;;;3.50;;
75061;SDS011;63641;46.526;24.612;2023-11-18T03:22:31;4.30;;;3.17;;
75061;SDS011;63641;46.526;24.612;2023-11-18T03:24:58;4.28;;;3.22;;
75061;SDS011;63641;46.526;24.612;2023-11-18T03:27:25;3.85;;;3.55;;
75061;SDS011;63641;46.526;24.612;2023-11-18T03:29:51;3.65;;;3.35;;
75061;SDS011;63641;46.526;24.612;2023-11-18T03:32:19;3.67;;;3.38;;
75061;SDS011;63641;46.526;24.612;2023-11-18T03:34:45;3.30;;;3.00;;
75061;SDS011;63641;46.526;24.612;2023-11-18T03:37:12;3.47;;;3.17;;
75061;SDS011;63641;46.526;24.612;2023-11-18T03:39:39;3.42;;;3.13;;
75061;SDS011;63641;46.526;24.612;2023-11-18T03:42:06;3.28;;;2.97;;
75061;SDS011;63641;46.526;24.612;2023-11-18T03:44:33;3.47;;;3.17;;
75061;SDS011;63641;46.526;24.612;2023-11-18T03:46:59;3.00;;;2.80;;
75061;SDS011;63641;46.526;24.612;2023-11-18T03:49:29;3.50;;;3.20;;
75061;SDS011;63641;46.526;24.612;2023-11-18T03:51:55;3.08;;;2.88;;
75061;SDS011;63641;46.526;24.612;2023-11-18T03:54:22;3.33;;;2.97;;
75061;SDS011;63641;46.526;24.612;2023-11-18T03:56:49;3.20;;;2.90;;
75061;SDS011;63641;46.526;24.612;2023-11-18T03:59:15;3.00;;;2.80;;
75061;SDS011;63641;46.526;24.612;2023-11-18T04:01:42;2.88;;;2.67;;
75061;SDS011;63641;46.526;24.612;2023-11-18T04:04:09;3.25;;;2.95;;
75061;SDS011;63641;46.526;24.612;2023-11-18T04:06:35;3.17;;;2.88;;
75061;SDS011;63641;46.526;24.612;2023-11-18T04:09:02;3.42;;;2.80;;
75061;SDS011;63641;46.526;24.612;2023-11-18T04:11:29;4.90;;;2.85;;
75061;SDS011;63641;46.526;24.612;2023-11-18T04:13:55;4.60;;;3.63;;
75061;SDS011;63641;46.526;24.612;2023-11-18T04:16:22;3.88;;;3.47;;
75061;SDS011;63641;46.526;24.612;2023-11-18T04:18:49;3.97;;;3.05;;
75061;SDS011;63641;46.526;24.612;2023-11-18T04:21:17;4.10;;;3.70;;
75061;SDS011;63641;46.526;24.612;2023-11-18T04:23:44;3.85;;;3.50;;
75061;SDS011;63641;46.526;24.612;2023-11-18T04:26:13;4.00;;;3.70;;
75061;SDS011;63641;46.526;24.612;2023-11-18T04:28:40;4.43;;;3.60;;
75061;SDS011;63641;46.526;24.612;2023-11-18T04:31:06;4.18;;;3.78;;
75061;SDS011;63641;46.526;24.612;2023-11-18T04:33:33;3.55;;;3.25;;
75061;SDS011;63641;46.526;24.612;2023-11-18T04:35:59;3.67;;;3.35;;
75061;SDS011;63641;46.526;24.612;2023-11-18T04:38:27;3.72;;;3.42;;
75061;SDS011;63641;46.526;24.612;2023-11-18T04:40:53;3.70;;;3.40;;
75061;SDS011;63641;46.526;24.612;2023-11-18T04:43:21;3.22;;;2.92;;
75061;SDS011;63641;46.526;24.612;2023-11-18T04:46:05;3.85;;;3.47;;
75061;SDS011;63641;46.526;24.612;2023-11-18T04:48:32;3.38;;;2.95;;
75061;SDS011;63641;46.526;24.612;2023-11-18T04:51:00;8.43;;;3.35;;
75061;SDS011;63641;46.526;24.612;2023-11-18T04:53:27;4.88;;;3.33;;
75061;SDS011;63641;46.526;24.612;2023-11-18T04:55:54;3.28;;;2.97;;
75061;SDS011;63641;46.526;24.612;2023-11-18T04:58:21;4.30;;;3.47;;
75061;SDS011;63641;46.526;24.612;2023-11-18T05:00:49;4.05;;;3.42;;
75061;SDS011;63641;46.526;24.612;2023-11-18T05:03:16;3.55;;;3.25;;
75061;SDS011;63641;46.526;24.612;2023-11-18T05:05:43;3.38;;;3.17;;
75061;SDS011;63641;46.526;24.612;2023-11-18T05:08:20;3.83;;;2.67;;
75061;SDS011;63641;46.526;24.612;2023-11-18T05:10:48;2.90;;;2.70;;
75061;SDS011;63641;46.526;24.612;2023-11-18T05:13:16;10.63;;;2.88;;
75061;SDS011;63641;46.526;24.612;2023-11-18T05:15:43;2.58;;;2.38;;
75061;SDS011;63641;46.526;24.612;2023-11-18T05:18:14;2.83;;;2.63;;
75061;SDS011;63641;46.526;24.612;2023-11-18T05:20:42;4.70;;;2.15;;
75061;SDS011;63641;46.526;24.612;2023-11-18T05:23:10;2.47;;;2.28;;
75061;SDS011;63641;46.526;24.612;2023-11-18T05:25:41;2.58;;;2.42;;
75061;SDS011;63641;46.526;24.612;2023-11-18T05:28:12;2.60;;;2.40;;
75061;SDS011;63641;46.526;24.612;2023-11-18T05:30:41;2.13;;;2.03;;
75061;SDS011;63641;46.526;24.612;2023-11-18T05:33:10;1.90;;;1.80;;
75061;SDS011;63641;46.526;24.612;2023-11-18T05:35:41;2.00;;;1.90;;
75061;SDS011;63641;46.526;24.612;2023-11-18T05:38:15;2.03;;;1.92;;
75061;SDS011;63641;46.526;24.612;2023-11-18T05:40:45;2.22;;;1.80;;
75061;SDS011;63641;46.526;24.612;2023-11-18T05:43:27;2.20;;;2.10;;
75061;SDS011;63641;46.526;24.612;2023-11-18T05:45:57;2.05;;;1.95;;
75061;SDS011;63641;46.526;24.612;2023-11-18T05:48:46;1.90;;;1.80;;
75061;SDS011;63641;46.526;24.612;2023-11-18T05:51:18;1.92;;;1.83;;
75061;SDS011;63641;46.526;24.612;2023-11-18T05:53:47;1.52;;;1.42;;
75061;SDS011;63641;46.526;24.612;2023-11-18T05:56:14;1.90;;;1.80;;
75061;SDS011;63641;46.526;24.612;2023-11-18T05:58:44;1.73;;;1.63;;
75061;SDS011;63641;46.526;24.612;2023-11-18T06:01:12;1.70;;;1.60;;
75061;SDS011;63641;46.526;24.612;2023-11-18T06:03:43;1.67;;;1.58;;
75061;SDS011;63641;46.526;24.612;2023-11-18T06:06:11;1.55;;;1.45;;
75061;SDS011;63641;46.526;24.612;2023-11-18T06:08:40;1.73;;;1.60;;
75061;SDS011;63641;46.526;24.612;2023-11-18T06:11:10;2.20;;;2.10;;
75061;SDS011;63641;46.526;24.612;2023-11-18T06:13:44;1.85;;;1.75;;
75061;SDS011;63641;46.526;24.612;2023-11-18T06:16:13;1.80;;;1.70;;
75061;SDS011;63641;46.526;24.612;2023-11-18T06:18:44;1.63;;;1.52;;
75061;SDS011;63641;46.526;24.612;2023-11-18T06:21:14;1.58;;;1.48;;
75061;SDS011;63641;46.526;24.612;2023-11-18T06:23:42;2.20;;;2.00;;
75061;SDS011;63641;46.526;24.612;2023-11-18T06:26:09;1.75;;;1.65;;
75061;SDS011;63641;46.526;24.612;2023-11-18T06:28:40;1.92;;;1.83;;
75061;SDS011;63641;46.526;24.612;2023-11-18T06:31:08;1.80;;;1.70;;
75061;SDS011;63641;46.526;24.612;2023-11-18T06:33:38;2.90;;;2.70;;
75061;SDS011;63641;46.526;24.612;2023-11-18T06:36:16;2.25;;;2.15;;
75061;SDS011;63641;46.526;24.612;2023-11-18T06:38:53;1.50;;;1.40;;
75061;SDS011;63641;46.526;24.612;2023-11-18T06:41:21;1.98;;;1.88;;
75061;SDS011;63641;46.526;24.612;2023-11-18T06:43:52;2.95;;;2.15;;
75061;SDS011;63641;46.526;24.612;2023-11-18T06:46:24;1.92;;;1.83;;
75061;SDS011;63641;46.526;24.612;2023-11-18T06:48:55;2.17;;;2.08;;
75061;SDS011;63641;46.526;24.612;2023-11-18T06:51:24;2.28;;;1.92;;
75061;SDS011;63641;46.526;24.612;2023-11-18T06:53:54;2.47;;;2.38;;
75061;SDS011;63641;46.526;24.612;2023-11-18T06:56:21;2.15;;;2.03;;
75061;SDS011;63641;46.526;24.612;2023-11-18T06:58:51;1.92;;;1.83;;
75061;SDS011;63641;46.526;24.612;2023-11-18T07:01:18;2.05;;;1.95;;
75061;SDS011;63641;46.526;24.612;2023-11-18T07:03:46;1.88;;;1.77;;
75061;SDS011;63641;46.526;24.612;2023-11-18T07:06:18;1.98;;;1.88;;
75061;SDS011;63641;46.526;24.612;2023-11-18T07:08:49;2.28;;;2.08;;
75061;SDS011;63641;46.526;24.612;2023-11-18T07:11:16;2.17;;;1.98;;
75061;SDS011;63641;46.526;24.612;2023-11-18T07:13:44;1.98;;;1.88;;
75061;SDS011;63641;46.526;24.612;2023-11-18T07:16:12;2.10;;;2.00;;
75061;SDS011;63641;46.526;24.612;2023-11-18T07:18:38;1.98;;;1.88;;
75061;SDS011;63641;46.526;24.612;2023-11-18T07:21:05;2.20;;;2.10;;
75061;SDS011;63641;46.526;24.612;2023-11-18T07:23:33;3.08;;;2.67;;
75061;SDS011;63641;46.526;24.612;2023-11-18T07:26:00;2.60;;;2.40;;
75061;SDS011;63641;46.526;24.612;2023-11-18T07:28:27;2.60;;;2.40;;
75061;SDS011;63641;46.526;24.612;2023-11-18T07:30:54;5.68;;;2.95;;
75061;SDS011;63641;46.526;24.612;2023-11-18T07:33:21;4.03;;;3.35;;
75061;SDS011;63641;46.526;24.612;2023-11-18T07:35:48;2.58;;;2.38;;
75061;SDS011;63641;46.526;24.612;2023-11-18T07:38:15;2.00;;;1.90;;
75061;SDS011;63641;46.526;24.612;2023-11-18T07:40:42;1.80;;;1.70;;
75061;SDS011;63641;46.526;24.612;2023-11-18T07:43:12;2.15;;;1.95;;
75061;SDS011;63641;46.526;24.612;2023-11-18T07:45:39;2.42;;;2.22;;
75061;SDS011;63641;46.526;24.612;2023-11-18T07:48:07;3.20;;;2.67;;
75061;SDS011;63641;46.526;24.612;2023-11-18T07:50:39;3.03;;;2.60;;
75061;SDS011;63641;46.526;24.612;2023-11-18T07:53:10;5.45;;;4.65;;
75061;SDS011;63641;46.526;24.612;2023-11-18T07:55:37;5.15;;;4.20;;
75061;SDS011;63641;46.526;24.612;2023-11-18T07:58:07;5.22;;;4.72;;
75061;SDS011;63641;46.526;24.612;2023-11-18T08:00:45;4.90;;;4.40;;
75061;SDS011;63641;46.526;24.612;2023-11-18T08:03:12;6.43;;;3.97;;
75061;SDS011;63641;46.526;24.612;2023-11-18T08:05:44;9.45;;;4.10;;
75061;SDS011;63641;46.526;24.612;2023-11-18T08:08:14;2.95;;;2.65;;
75061;SDS011;63641;46.526;24.612;2023-11-18T08:10:44;5.65;;;3.10;;
75061;SDS011;63641;46.526;24.612;2023-11-18T08:13:11;3.42;;;2.47;;
75061;SDS011;63641;46.526;24.612;2023-11-18T08:15:40;14.32;;;3.22;;
75061;SDS011;63641;46.526;24.612;2023-11-18T08:18:08;3.72;;;2.80;;
75061;SDS011;63641;46.526;24.612;2023-11-18T08:20:37;3.17;;;2.88;;
75061;SDS011;63641;46.526;24.612;2023-11-18T08:23:04;4.13;;;2.88;;
75061;SDS011;63641;46.526;24.612;2023-11-18T08:25:34;5.10;;;4.60;;
75061;SDS011;63641;46.526;24.612;2023-11-18T08:28:02;3.67;;;3.38;;
75061;SDS011;63641;46.526;24.612;2023-11-18T08:30:33;4.03;;;3.63;;
75061;SDS011;63641;46.526;24.612;2023-11-18T08:33:06;5.50;;;3.35;;
75061;SDS011;63641;46.526;24.612;2023-11-18T08:35:36;3.65;;;3.20;;
75061;SDS011;63641;46.526;24.612;2023-11-18T08:38:03;5.97;;;3.53;;
75061;SDS011;63641;46.526;24.612;2023-11-18T08:40:31;3.05;;;2.85;;
75061;SDS011;63641;46.526;24.612;2023-11-18T08:42:57;2.88;;;2.40;;
75061;SDS011;63641;46.526;24.612;2023-11-18T08:45:28;2.40;;;2.20;;
75061;SDS011;63641;46.526;24.612;2023-11-18T08:47:56;2.85;;;2.63;;
75061;SDS011;63641;46.526;24.612;2023-11-18T08:50:24;3.10;;;2.80;;
75061;SDS011;63641;46.526;24.612;2023-11-18T08:52:52;3.30;;;3.03;;
75061;SDS011;63641;46.526;24.612;2023-11-18T08:55:28;3.17;;;2.90;;
75061;SDS011;63641;46.526;24.612;2023-11-18T08:58:18;4.20;;;3.40;;
75061;SDS011;63641;46.526;24.612;2023-11-18T09:00:47;3.15;;;2.95;;
75061;SDS011;63641;46.526;24.612;2023-11-18T09:03:24;3.85;;;3.45;;
75061;SDS011;63641;46.526;24.612;2023-11-18T09:05:52;3.20;;;2.90;;
75061;SDS011;63641;46.526;24.612;2023-11-18T09:08:26;2.90;;;2.70;;
75061;SDS011;63641;46.526;24.612;2023-11-18T09:11:15;3.55;;;3.13;;
75061;SDS011;63641;46.526;24.612;2023-11-18T09:13:43;2.70;;;2.40;;
75061;SDS011;63641;46.526;24.612;2023-11-18T09:16:13;1.98;;;1.88;;
75061;SDS011;63641;46.526;24.612;2023-11-18T09:18:41;2.88;;;2.67;;
75061;SDS011;63641;46.526;24.612;2023-11-18T09:21:11;2.60;;;2.30;;
75061;SDS011;63641;46.526;24.612;2023-11-18T09:23:42;2.30;;;2.00;;
75061;SDS011;63641;46.526;24.612;2023-11-18T09:26:10;2.55;;;2.35;;
75061;SDS011;63641;46.526;24.612;2023-11-18T09:28:37;2.40;;;2.20;;
75061;SDS011;63641;46.526;24.612;2023-11-18T09:31:05;2.40;;;2.20;;
75061;SDS011;63641;46.526;24.612;2023-11-18T09:33:33;2.75;;;2.55;;
75061;SDS011;63641;46.526;24.612;2023-11-18T09:36:07;2.65;;;2.45;;
75061;SDS011;63641;46.526;24.612;2023-11-18T09:38:35;2.97;;;2.70;;
75061;SDS011;63641;46.526;24.612;2023-11-18T09:41:03;2.47;;;2.28;;
75061;SDS011;63641;46.526;24.612;2023-11-18T09:43:33;3.80;;;3.45;;
75061;SDS011;63641;46.526;24.612;2023-11-18T09:46:09;4.80;;;4.30;;
75061;SDS011;63641;46.526;24.612;2023-11-18T09:48:43;6.47;;;5.88;;
75061;SDS011;63641;46.526;24.612;2023-11-18T09:51:20;10.52;;;4.45;;
75061;SDS011;63641;46.526;24.612;2023-11-18T09:53:52;2.78;;;2.58;;
75061;SDS011;63641;46.526;24.612;2023-11-18T09:59:05;4.95;;;3.33;;
75061;SDS011;63641;46.526;24.612;2023-11-18T10:01:42;3.08;;;2.60;;
75061;SDS011;63641;46.526;24.612;2023-11-18T10:04:13;3.25;;;3.03;;
75061;SDS011;63641;46.526;24.612;2023-11-18T10:06:44;4.32;;;2.88;;
75061;SDS011;63641;46.526;24.612;2023-11-18T10:09:13;2.80;;;2.55;;
75061;SDS011;63641;46.526;24.612;2023-11-18T10:11:46;2.95;;;2.65;;
75061;SDS011;63641;46.526;24.612;2023-11-18T10:14:14;2.47;;;2.28;;
75061;SDS011;63641;46.526;24.612;2023-11-18T10:16:45;2.63;;;2.42;;
75061;SDS011;63641;46.526;24.612;2023-11-18T10:19:15;2.50;;;2.30;;
75061;SDS011;63641;46.526;24.612;2023-11-18T10:21:44;2.42;;;2.30;;
75061;SDS011;63641;46.526;24.612;2023-11-18T10:24:15;3.17;;;2.97;;
75061;SDS011;63641;46.526;24.612;2023-11-18T10:26:53;2.25;;;2.15;;
75061;SDS011;63641;46.526;24.612;2023-11-18T10:29:24;2.90;;;2.55;;
75061;SDS011;63641;46.526;24.612;2023-11-18T10:32:04;2.58;;;2.38;;
75061;SDS011;63641;46.526;24.612;2023-11-18T10:34:36;2.80;;;2.22;;
75061;SDS011;63641;46.526;24.612;2023-11-18T10:37:04;2.95;;;2.72;;
75061;SDS011;63641;46.526;24.612;2023-11-18T10:39:33;3.00;;;2.70;;
75061;SDS011;63641;46.526;24.612;2023-11-18T10:42:02;2.85;;;2.35;;
75061;SDS011;63641;46.526;24.612;2023-11-18T10:44:29;3.45;;;2.70;;
75061;SDS011;63641;46.526;24.612;2023-11-18T10:46:56;4.10;;;2.65;;
75061;SDS011;63641;46.526;24.612;2023-11-18T10:49:28;3.22;;;3.00;;
75061;SDS011;63641;46.526;24.612;2023-11-18T10:52:04;6.45;;;2.78;;
75061;SDS011;63641;46.526;24.612;2023-11-18T10:54:34;2.80;;;2.30;;
75061;SDS011;63641;46.526;24.612;2023-11-18T10:57:01;2.65;;;2.50;;
75061;SDS011;63641;46.526;24.612;2023-11-18T10:59:34;2.22;;;2.05;;
75061;SDS011;63641;46.526;24.612;2023-11-18T11:02:01;2.40;;;2.30;;
75061;SDS011;63641;46.526;24.612;2023-11-18T11:04:45;2.30;;;2.20;;
75061;SDS011;63641;46.526;24.612;2023-11-18T11:07:12;2.58;;;2.25;;
75061;SDS011;63641;46.526;24.612;2023-11-18T11:09:40;3.00;;;2.80;;
75061;SDS011;63641;46.526;24.612;2023-11-18T11:12:11;3.05;;;2.47;;
75061;SDS011;63641;46.526;24.612;2023-11-18T11:14:50;2.80;;;2.60;;
75061;SDS011;63641;46.526;24.612;2023-11-18T11:17:27;2.90;;;2.70;;
75061;SDS011;63641;46.526;24.612;2023-11-18T11:28:09;2.67;;;2.47;;
75061;SDS011;63641;46.526;24.612;2023-11-18T11:36:37;2.60;;;2.40;;
75061;SDS011;63641;46.526;24.612;2023-11-18T11:39:08;2.70;;;2.50;;
75061;SDS011;63641;46.526;24.612;2023-11-18T11:41:51;2.43;;;2.23;;
75061;SDS011;63641;46.526;24.612;2023-11-18T11:44:20;3.13;;;2.33;;
75061;SDS011;63641;46.526;24.612;2023-11-18T11:46:47;2.65;;;2.45;;
75061;SDS011;63641;46.526;24.612;2023-11-18T11:49:22;2.25;;;2.15;;
75061;SDS011;63641;46.526;24.612;2023-11-18T11:52:02;2.42;;;2.22;;
75061;SDS011;63641;46.526;24.612;2023-11-18T11:54:45;2.35;;;2.15;;
75061;SDS011;63641;46.526;24.612;2023-11-18T11:57:22;2.88;;;2.30;;
75061;SDS011;63641;46.526;24.612;2023-11-18T12:02:23;3.33;;;2.72;;
75061;SDS011;63641;46.526;24.612;2023-11-18T12:04:55;3.20;;;2.90;;
75061;SDS011;63641;46.526;24.612;2023-11-18T12:07:25;3.05;;;2.85;;
75061;SDS011;63641;46.526;24.612;2023-11-18T12:09:57;2.72;;;2.45;;
75061;SDS011;63641;46.526;24.612;2023-11-18T12:12:26;4.63;;;2.80;;
75061;SDS011;63641;46.526;24.612;2023-11-18T12:14:54;2.90;;;2.60;;
75061;SDS011;63641;46.526;24.612;2023-11-18T12:17:26;2.83;;;2.53;;
75061;SDS011;63641;46.526;24.612;2023-11-18T12:19:59;4.03;;;2.95;;
75061;SDS011;63641;46.526;24.612;2023-11-18T12:22:26;2.70;;;2.50;;
75061;SDS011;63641;46.526;24.612;2023-11-18T12:44:16;2.92;;;2.72;;
75061;SDS011;63641;46.526;24.612;2023-11-18T12:49:41;2.80;;;2.50;;
75061;SDS011;63641;46.526;24.612;2023-11-18T12:52:12;2.85;;;2.65;;
75061;SDS011;63641;46.526;24.612;2023-11-18T12:54:44;3.05;;;2.85;;
75061;SDS011;63641;46.526;24.612;2023-11-18T12:57:19;3.50;;;3.20;;
75061;SDS011;63641;46.526;24.612;2023-11-18T12:59:49;3.30;;;3.00;;
75061;SDS011;63641;46.526;24.612;2023-11-18T13:02:16;3.28;;;2.97;;
75061;SDS011;63641;46.526;24.612;2023-11-18T13:04:47;3.72;;;2.92;;
75061;SDS011;63641;46.526;24.612;2023-11-18T13:07:14;3.45;;;3.15;;
75061;SDS011;63641;46.526;24.612;2023-11-18T13:09:41;3.60;;;2.97;;
75061;SDS011;63641;46.526;24.612;2023-11-18T13:12:10;3.40;;;3.10;;
75061;SDS011;63641;46.526;24.612;2023-11-18T13:14:41;3.33;;;3.03;;
75061;SDS011;63641;46.526;24.612;2023-11-18T13:17:09;3.10;;;2.80;;
75061;SDS011;63641;46.526;24.612;2023-11-18T13:19:41;3.13;;;2.80;;
75061;SDS011;63641;46.526;24.612;2023-11-18T13:22:10;5.63;;;3.00;;
75061;SDS011;63641;46.526;24.612;2023-11-18T13:24:38;3.10;;;2.80;;
75061;SDS011;63641;46.526;24.612;2023-11-18T13:27:07;3.00;;;2.70;;
75061;SDS011;63641;46.526;24.612;2023-11-18T13:29:35;3.13;;;2.83;;
75061;SDS011;63641;46.526;24.612;2023-11-18T13:32:10;2.75;;;2.53;;
75061;SDS011;63641;46.526;24.612;2023-11-18T13:34:38;3.33;;;3.03;;
75061;SDS011;63641;46.526;24.612;2023-11-18T13:37:09;3.42;;;2.60;;
75061;SDS011;63641;46.526;24.612;2023-11-18T13:39:39;2.42;;;2.22;;
75061;SDS011;63641;46.526;24.612;2023-11-18T13:42:20;2.97;;;2.47;;
75061;SDS011;63641;46.526;24.612;2023-11-18T13:44:49;2.40;;;2.20;;
75061;SDS011;63641;46.526;24.612;2023-11-18T13:47:17;2.15;;;2.05;;
75061;SDS011;63641;46.526;24.612;2023-11-18T13:49:45;1.92;;;1.83;;
75061;SDS011;63641;46.526;24.612;2023-11-18T13:52:17;1.90;;;1.80;;
75061;SDS011;63641;46.526;24.612;2023-11-18T13:54:46;2.03;;;1.88;;
75061;SDS011;63641;46.526;24.612;2023-11-18T13:57:14;1.88;;;1.70;;
75061;SDS011;63641;46.526;24.612;2023-11-18T13:59:41;2.08;;;1.95;;
75061;SDS011;63641;46.526;24.612;2023-11-18T14:02:11;3.38;;;2.22;;
75061;SDS011;63641;46.526;24.612;2023-11-18T14:04:39;2.20;;;2.00;;
75061;SDS011;63641;46.526;24.612;2023-11-18T14:07:06;2.08;;;1.92;;
75061;SDS011;63641;46.526;24.612;2023-11-18T14:09:35;2.25;;;2.05;;
75061;SDS011;63641;46.526;24.612;2023-11-18T14:12:06;3.08;;;2.80;;
75061;SDS011;63641;46.526;24.612;2023-11-18T14:14:35;2.58;;;2.38;;
75061;SDS011;63641;46.526;24.612;2023-11-18T14:17:02;2.78;;;2.58;;
75061;SDS011;63641;46.526;24.612;2023-11-18T14:19:29;2.80;;;2.45;;
75061;SDS011;63641;46.526;24.612;2023-11-18T14:21:55;2.95;;;2.50;;
75061;SDS011;63641;46.526;24.612;2023-11-18T14:24:22;2.47;;;2.28;;
75061;SDS011;63641;46.526;24.612;2023-11-18T14:26:49;2.83;;;2.58;;
75061;SDS011;63641;46.526;24.612;2023-11-18T14:29:19;3.08;;;2.65;;
75061;SDS011;63641;46.526;24.612;2023-11-18T14:31:46;2.55;;;2.35;;
75061;SDS011;63641;46.526;24.612;2023-11-18T14:34:13;2.63;;;2.40;;
75061;SDS011;63641;46.526;24.612;2023-11-18T14:36:40;4.55;;;4.15;;
75061;SDS011;63641;46.526;24.612;2023-11-18T14:39:10;2.83;;;2.63;;
75061;SDS011;63641;46.526;24.612;2023-11-18T14:41:39;2.90;;;2.70;;
75061;SDS011;63641;46.526;24.612;2023-11-18T14:44:06;3.15;;;2.85;;
75061;SDS011;63641;46.526;24.612;2023-11-18T14:46:36;4.45;;;2.75;;
75061;SDS011;63641;46.526;24.612;2023-11-18T14:49:07;3.20;;;2.70;;
75061;SDS011;63641;46.526;24.612;2023-11-18T14:51:36;2.60;;;2.40;;
75061;SDS011;63641;46.526;24.612;2023-11-18T14:54:04;3.15;;;2.85;;
75061;SDS011;63641;46.526;24.612;2023-11-18T14:56:32;3.58;;;3.00;;
75061;SDS011;63641;46.526;24.612;2023-11-18T14:59:01;3.97;;;3.30;;
75061;SDS011;63641;46.526;24.612;2023-11-18T15:01:31;2.85;;;2.65;;
75061;SDS011;63641;46.526;24.612;2023-11-18T15:03:58;3.53;;;2.58;;
75061;SDS011;63641;46.526;24.612;2023-11-18T15:06:26;4.30;;;3.10;;
75061;SDS011;63641;46.526;24.612;2023-11-18T15:08:53;3.08;;;2.83;;
75061;SDS011;63641;46.526;24.612;2023-11-18T15:11:23;3.03;;;2.83;;
75061;SDS011;63641;46.526;24.612;2023-11-18T15:13:51;3.05;;;2.53;;
75061;SDS011;63641;46.526;24.612;2023-11-18T15:16:20;2.90;;;2.58;;
75061;SDS011;63641;46.526;24.612;2023-11-18T15:18:47;3.38;;;2.65;;
75061;SDS011;63641;46.526;24.612;2023-11-18T15:21:14;3.05;;;2.70;;
75061;SDS011;63641;46.526;24.612;2023-11-18T15:23:42;2.55;;;2.35;;
75061;SDS011;63641;46.526;24.612;2023-11-18T15:26:08;2.40;;;2.20;;
75061;SDS011;63641;46.526;24.612;2023-11-18T15:28:36;2.58;;;2.38;;
75061;SDS011;63641;46.526;24.612;2023-11-18T15:31:03;2.50;;;2.30;;